Terminal Aerodrome Forecast
Issued by NWS

Home | Current Version | Previous Version | Text Only | Print | Product List | Glossary On
Versions: 1 2 3 4 5 6 7 8 9 10 11 12 13 14 15 16 17 18 19
000
FTUS46 KSTO 161737
TAFSMF
TAF
KSMF 161737Z 1618/1718 00000KT 1/4SM FG VV001
      TEMPO 1618/1620 1/2SM FG OVC002
     FM162000 VRB03KT 2SM BR BKN005
      TEMPO 1621/1623 5SM BR SCT005
     FM170500 16004KT 1 1/2SM BR SCT001
     FM170800 00000KT 1/4SM FG VV001=

USA.gov is the U.S. government's official web portal to all federal, state and local government web resources and services.